Time;durP1;ratioP1;P1;durP2;ratioP2;P2;SDS_P1;SDS_P2;PMS_P1;PMS_P2;Temp;Humidity;BMP_temperature;BMP_pressure;BME280_temperature;BME280_humidity;BME280_pressure;Samples;Min_cycle;Max_cycle;Signal;HPM_P1;HPM_P2
2022/12/18 00:02:01;;;;;;;56.33;38.53;;;;;;;-6.16;100.00;101516.28;5015108;28;20192;-73
2022/12/18 00:04:27;;;;;;;59.00;39.37;;;;;;;-6.20;100.00;101520.22;5010404;28;20281;-73
2022/12/18 00:06:53;;;;;;;52.23;36.77;;;;;;;-6.25;100.00;101524.00;5022286;28;20194;-74
2022/12/18 00:09:19;;;;;;;61.90;40.47;;;;;;;-6.29;100.00;101530.44;5016173;28;20829;-73
2022/12/18 00:11:45;;;;;;;51.60;36.70;;;;;;;-6.32;100.00;101529.34;5015978;28;20251;-73
2022/12/18 00:14:11;;;;;;;55.03;36.30;;;;;;;-6.31;100.00;101524.41;5017988;28;20313;-74
2022/12/18 00:16:37;;;;;;;53.30;36.10;;;;;;;-6.29;100.00;101532.97;5022166;28;20191;-73
2022/12/18 00:19:05;;;;;;;50.30;35.50;;;;;;;-6.24;100.00;101528.28;4996241;28;20200;-73
2022/12/18 00:21:32;;;;;;;48.27;35.23;;;;;;;-6.19;100.00;101527.03;5016712;28;20200;-74
2022/12/18 00:23:58;;;;;;;48.70;34.43;;;;;;;-6.13;100.00;101526.63;5015922;28;20801;-73
2022/12/18 00:26:32;;;;;;;44.37;33.37;;;;;;;-6.06;100.00;101530.50;5017645;28;20215;-74
2022/12/18 00:29:00;;;;;;;48.13;33.40;;;;;;;-6.03;100.00;101534.13;5022651;28;20694;-74
2022/12/18 00:31:25;;;;;;;50.60;34.63;;;;;;;-5.98;100.00;101535.34;5020220;28;20187;-74
2022/12/18 00:33:51;;;;;;;45.83;32.43;;;;;;;-5.94;100.00;101535.59;5014714;28;20219;-73
2022/12/18 00:36:19;;;;;;;44.97;32.30;;;;;;;-5.90;100.00;101528.38;5020298;28;20358;-74
2022/12/18 00:38:45;;;;;;;47.73;32.63;;;;;;;-5.86;100.00;101532.00;5025676;28;20219;-73
2022/12/18 00:41:12;;;;;;;44.40;31.47;;;;;;;-5.86;100.00;101529.50;5022851;28;20206;-73
2022/12/18 00:43:39;;;;;;;43.43;32.07;;;;;;;-5.84;100.00;101530.50;5026369;28;20191;-73
2022/12/18 00:46:04;;;;;;;47.90;34.43;;;;;;;-5.84;100.00;101528.88;5039107;28;20200;-74
2022/12/18 00:48:30;;;;;;;52.40;35.80;;;;;;;-5.82;100.00;101519.75;5027099;28;20206;-74
2022/12/18 00:50:55;;;;;;;47.97;36.03;;;;;;;-5.80;100.00;101522.41;5029330;28;20658;-73
2022/12/18 00:53:21;;;;;;;53.97;38.50;;;;;;;-5.98;100.00;101521.88;5026370;28;20183;-74
2022/12/18 00:55:46;;;;;;;52.40;37.20;;;;;;;-6.10;100.00;101528.50;5028559;28;20587;-73
2022/12/18 00:58:14;;;;;;;51.93;37.10;;;;;;;-6.18;100.00;101530.41;5033871;28;20222;-74
2022/12/18 01:00:39;;;;;;;55.07;38.17;;;;;;;-6.25;100.00;101526.53;5027752;28;20188;-74
2022/12/18 01:03:05;;;;;;;52.07;36.27;;;;;;;-6.30;100.00;101525.31;5026579;28;20478;-74
2022/12/18 01:05:31;;;;;;;54.50;38.33;;;;;;;-6.34;100.00;101521.63;5026361;28;20239;-74
2022/12/18 01:07:57;;;;;;;51.20;33.83;;;;;;;-6.35;100.00;101517.34;5032460;28;20409;-74
2022/12/18 01:10:23;;;;;;;49.67;36.00;;;;;;;-6.39;100.00;101522.94;5028710;28;20602;-74
2022/12/18 01:12:48;;;;;;;52.93;37.83;;;;;;;-6.41;100.00;101529.47;5035175;28;20230;-73
2022/12/18 01:15:15;;;;;;;51.13;35.97;;;;;;;-6.49;100.00;101525.47;5027158;28;20211;-73
2022/12/18 01:17:40;;;;;;;50.67;36.93;;;;;;;-6.56;100.00;101529.13;5017577;28;20719;-73
2022/12/18 01:20:08;;;;;;;53.97;37.40;;;;;;;-6.57;100.00;101536.56;5022408;28;20196;-73
2022/12/18 01:22:33;;;;;;;54.57;38.23;;;;;;;-6.65;100.00;101524.22;5020607;28;20195;-74
2022/12/18 01:24:59;;;;;;;57.80;39.07;;;;;;;-6.70;100.00;101520.47;5029589;28;20212;-73
2022/12/18 01:27:24;;;;;;;49.63;35.20;;;;;;;-6.74;100.00;101519.38;5020588;28;20223;-74
2022/12/18 01:29:49;;;;;;;46.13;33.37;;;;;;;-6.68;100.00;101523.09;5014583;28;20219;-73
2022/12/18 01:32:15;;;;;;;46.63;32.77;;;;;;;-6.61;100.00;101511.13;5022858;28;20329;-74
2022/12/18 01:34:40;;;;;;;47.73;32.37;;;;;;;-6.49;100.00;101512.88;5051971;28;20223;-74
2022/12/18 01:37:06;;;;;;;47.47;32.93;;;;;;;-6.40;100.00;101520.28;5051703;28;20214;-73
2022/12/18 01:39:32;;;;;;;43.90;31.27;;;;;;;-6.32;100.00;101539.41;5031538;28;20187;-73
2022/12/18 01:42:02;;;;;;;46.40;31.50;;;;;;;-6.23;100.00;101546.81;5026136;28;20200;-74
2022/12/18 01:44:57;;;;;;;46.73;32.40;;;;;;;-6.16;100.00;101538.97;5023231;28;20216;-74
2022/12/18 01:47:28;;;;;;;49.83;35.63;;;;;;;-6.15;100.00;101543.25;5020262;28;20278;-74
2022/12/18 01:49:55;;;;;;;51.10;36.27;;;;;;;-6.24;100.00;101543.41;5019911;28;20756;-74
2022/12/18 01:52:22;;;;;;;53.47;36.43;;;;;;;-6.32;100.00;101540.28;5015842;28;20191;-73
2022/12/18 01:54:50;;;;;;;49.57;36.97;;;;;;;-6.36;100.00;101533.25;5023730;28;20219;-74
2022/12/18 01:57:16;;;;;;;49.47;35.93;;;;;;;-6.43;100.00;101525.97;5020452;28;20215;-74
2022/12/18 01:59:46;;;;;;;50.10;35.30;;;;;;;-6.51;100.00;101532.03;5023111;28;20211;-74
2022/12/18 02:02:11;;;;;;;49.13;35.57;;;;;;;-6.56;100.00;101533.28;5010680;28;20672;-74
2022/12/18 02:04:37;;;;;;;53.10;36.40;;;;;;;-6.57;100.00;101542.47;5033575;28;20297;-75
2022/12/18 02:07:30;;;;;;;45.70;33.63;;;;;;;-6.56;100.00;101535.81;5023265;28;20199;-74
2022/12/18 02:10:22;;;;;;;48.00;34.40;;;;;;;-6.50;100.00;101544.75;5025158;28;20223;-74
2022/12/18 02:12:57;;;;;;;48.27;33.87;;;;;;;-6.46;100.00;101546.75;5020210;28;20245;-75
2022/12/18 02:15:32;;;;;;;50.53;34.33;;;;;;;-6.41;100.00;101546.22;5017347;28;20307;-74
2022/12/18 02:18:10;;;;;;;50.03;34.63;;;;;;;-6.42;100.00;101547.88;5023771;28;20222;-74
2022/12/18 02:20:42;;;;;;;48.23;33.93;;;;;;;-6.42;100.00;101547.88;5027599;28;20199;-74
2022/12/18 02:23:53;;;;;;;49.77;34.77;;;;;;;-6.42;100.00;101547.88;5023578;28;20199;-73
2022/12/18 02:26:28;;;;;;;47.53;33.50;;;;;;;-6.44;100.00;101542.72;5022095;28;20207;-74
2022/12/18 02:28:59;;;;;;;50.93;32.63;;;;;;;-6.39;100.00;101549.75;5029005;28;20225;-74
2022/12/18 02:31:28;;;;;;;47.77;34.70;;;;;;;-6.38;100.00;101549.00;5029636;28;20218;-74
2022/12/18 02:34:00;;;;;;;47.40;32.87;;;;;;;-6.36;100.00;101553.41;5027230;28;20326;-74
2022/12/18 02:36:28;;;;;;;47.20;32.47;;;;;;;-6.36;100.00;101553.41;5028473;28;20298;-74
2022/12/18 02:38:55;;;;;;;47.67;33.77;;;;;;;-6.29;100.00;101547.22;5030054;28;20188;-74
2022/12/18 02:41:24;;;;;;;48.83;33.80;;;;;;;-6.31;100.00;101542.03;5029789;28;20198;-73
2022/12/18 02:43:57;;;;;;;46.07;31.83;;;;;;;-6.28;100.00;101529.69;5023156;28;20782;-74
2022/12/18 02:46:28;;;;;;;44.27;32.37;;;;;;;-6.26;100.00;101539.00;5030854;28;20187;-73
2022/12/18 02:49:04;;;;;;;47.17;33.27;;;;;;;-6.27;100.00;101538.13;5031742;28;21332;-74
2022/12/18 02:51:47;;;;;;;49.90;33.77;;;;;;;-6.25;100.00;101545.81;5035556;28;20271;-74
2022/12/18 02:54:44;;;;;;;48.47;33.67;;;;;;;-6.27;100.00;101533.09;5031126;28;20211;-74
2022/12/18 02:57:27;;;;;;;49.60;33.57;;;;;;;-6.28;100.00;101554.03;5024413;28;20302;-73
2022/12/18 03:00:02;;;;;;;48.93;33.17;;;;;;;-6.27;100.00;101553.22;5021961;28;20659;-74
2022/12/18 03:02:37;;;;;;;51.20;33.53;;;;;;;-6.25;100.00;101558.41;5023495;28;20233;-74
2022/12/18 03:05:24;;;;;;;50.07;32.93;;;;;;;-6.26;100.00;101555.00;5021179;28;20233;-74
2022/12/18 03:08:14;;;;;;;48.50;33.77;;;;;;;-6.26;100.00;101562.56;5020102;28;20225;-74
2022/12/18 03:10:45;;;;;;;49.90;32.80;;;;;;;-6.26;100.00;101561.69;5007591;28;20218;-74
2022/12/18 03:13:20;;;;;;;45.60;32.00;;;;;;;-6.22;100.00;101558.66;5026049;28;20187;-74
2022/12/18 03:15:49;;;;;;;40.03;29.33;;;;;;;-6.18;100.00;101558.13;5022252;28;20694;-74
2022/12/18 03:18:30;;;;;;;35.83;27.07;;;;;;;-6.14;100.00;101547.53;5025117;28;20252;-74
2022/12/18 03:20:59;;;;;;;36.87;25.47;;;;;;;-6.07;100.00;101554.84;5026941;28;20709;-73
2022/12/18 03:23:30;;;;;;;37.33;25.83;;;;;;;-6.03;100.00;101553.44;5015149;28;20210;-73
2022/12/18 03:25:58;;;;;;;37.17;25.77;;;;;;;-5.99;100.00;101553.75;5008501;28;20187;-74
2022/12/18 03:28:25;;;;;;;37.07;25.73;;;;;;;-5.96;100.00;101558.13;5025248;28;20202;-73
2022/12/18 03:30:56;;;;;;;34.90;25.13;;;;;;;-5.92;100.00;101560.16;5026607;28;20187;-74
2022/12/18 03:33:27;;;;;;;35.20;25.50;;;;;;;-5.87;100.00;101560.50;5021668;28;20199;-74
2022/12/18 03:35:53;;;;;;;37.00;25.13;;;;;;;-5.84;100.00;101556.59;5022281;28;20657;-73
2022/12/18 03:38:18;;;;;;;34.87;24.50;;;;;;;-5.81;100.00;101564.38;5027352;28;20268;-74
2022/12/18 03:40:49;;;;;;;34.33;24.37;;;;;;;-5.78;100.00;101558.72;5021011;28;21049;-74
2022/12/18 03:43:29;;;;;;;35.47;25.53;;;;;;;-5.74;100.00;101557.31;5027748;28;20183;-74
2022/12/18 03:46:13;;;;;;;39.33;26.80;;;;;;;-5.75;100.00;101553.03;5049333;28;20192;-74
2022/12/18 03:48:45;;;;;;;39.40;27.87;;;;;;;-5.76;100.00;101548.75;5044018;28;20566;-74
2022/12/18 03:51:44;;;;;;;36.03;25.50;;;;;;;-5.81;100.00;101539.16;5002746;28;20278;-73
2022/12/18 03:54:11;;;;;;;33.70;25.17;;;;;;;-5.80;100.00;101532.50;5013332;28;20223;-74
2022/12/18 03:56:42;;;;;;;38.57;26.30;;;;;;;-5.78;100.00;101528.47;5022456;28;20191;-74
2022/12/18 03:59:10;;;;;;;36.13;25.37;;;;;;;-5.77;100.00;101530.22;5025154;28;20196;-73
2022/12/18 04:01:41;;;;;;;42.77;29.03;;;;;;;-5.76;100.00;101523.53;5016013;28;20193;-74
2022/12/18 04:04:09;;;;;;;39.80;28.03;;;;;;;-5.76;100.00;101531.97;5019333;28;20311;-73
2022/12/18 04:06:35;;;;;;;40.27;28.20;;;;;;;-5.75;100.00;101530.31;5020759;28;20183;-74
2022/12/18 04:09:01;;;;;;;36.90;25.77;;;;;;;-5.74;100.00;101535.47;5022254;28;20728;-74
2022/12/18 04:11:27;;;;;;;38.77;27.57;;;;;;;-5.72;100.00;101541.53;5024589;28;20187;-74
2022/12/18 04:13:56;;;;;;;36.47;26.70;;;;;;;-5.70;100.00;101542.53;5018068;28;21845;-74
2022/12/18 04:16:21;;;;;;;39.70;27.80;;;;;;;-5.68;100.00;101538.47;5019715;28;20201;-73
2022/12/18 04:18:47;;;;;;;39.50;27.90;;;;;;;-5.64;100.00;101539.59;5028477;28;20289;-74
2022/12/18 04:21:12;;;;;;;44.33;30.97;;;;;;;-5.63;100.00;101528.75;5022678;28;20667;-74
2022/12/18 04:23:37;;;;;;;46.90;32.10;;;;;;;-5.67;100.00;101540.25;5024271;28;20197;-73
2022/12/18 04:26:03;;;;;;;45.40;31.43;;;;;;;-5.69;100.00;101535.84;5018364;28;20192;-74
2022/12/18 04:28:28;;;;;;;44.13;30.07;;;;;;;-5.71;100.00;101530.69;5024322;28;20588;-74
2022/12/18 04:30:53;;;;;;;39.30;28.10;;;;;;;-5.69;100.00;101524.09;5019394;28;20734;-74
2022/12/18 04:33:19;;;;;;;43.93;29.93;;;;;;;-5.68;100.00;101518.31;5017161;28;20187;-74
2022/12/18 04:35:45;;;;;;;43.53;30.23;;;;;;;-5.68;100.00;101532.56;5027793;28;20223;-74
2022/12/18 04:38:10;;;;;;;46.73;30.43;;;;;;;-5.67;100.00;101541.88;5014155;28;20214;-74
2022/12/18 04:40:37;;;;;;;46.67;31.97;;;;;;;-5.66;100.00;101544.53;5024719;28;20280;-74
2022/12/18 04:43:03;;;;;;;47.30;31.23;;;;;;;-5.67;100.00;101540.25;5021606;28;20191;-74
2022/12/18 04:45:29;;;;;;;44.33;30.07;;;;;;;-5.68;100.00;101538.47;5020810;28;20208;-74
2022/12/18 04:47:57;;;;;;;42.33;29.37;;;;;;;-5.67;100.00;101540.25;5012679;28;20191;-74
2022/12/18 04:50:22;;;;;;;45.17;30.60;;;;;;;-5.65;100.00;101537.81;5021288;28;20194;-74
2022/12/18 04:52:48;;;;;;;49.57;32.13;;;;;;;-5.61;100.00;101538.97;5005860;28;20188;-73
2022/12/18 04:55:13;;;;;;;43.17;31.07;;;;;;;-5.62;100.00;101534.69;5021530;28;20230;-74
2022/12/18 04:57:38;;;;;;;43.67;30.23;;;;;;;-5.64;100.00;101542.13;5038057;28;20211;-74
2022/12/18 05:00:05;;;;;;;46.77;30.87;;;;;;;-5.63;100.00;101541.34;5030327;28;20596;-73
2022/12/18 05:02:31;;;;;;;43.20;30.17;;;;;;;-5.64;100.00;101548.81;5026305;28;20937;-74
2022/12/18 05:04:56;;;;;;;40.70;29.37;;;;;;;-5.63;100.00;101545.53;5025707;28;20210;-74
2022/12/18 05:07:23;;;;;;;41.27;29.33;;;;;;;-5.62;100.00;101558.25;5016991;28;20312;-74
2022/12/18 05:09:48;;;;;;;44.17;30.30;;;;;;;-5.60;100.00;101560.91;5026328;28;20278;-73
2022/12/18 05:12:13;;;;;;;45.53;30.40;;;;;;;-5.60;100.00;101559.25;5029277;28;20192;-74
2022/12/18 05:14:39;;;;;;;43.77;29.73;;;;;;;-5.59;100.00;101563.53;5023215;28;20292;-74
2022/12/18 05:17:04;;;;;;;47.10;30.93;;;;;;;-5.57;100.00;101563.63;5023186;28;20218;-74
2022/12/18 05:19:30;;;;;;;43.80;28.73;;;;;;;-5.56;100.00;101556.22;5027723;28;20766;-74
2022/12/18 05:21:55;;;;;;;44.83;28.60;;;;;;;-5.54;100.00;101558.84;5029644;28;20194;-74
2022/12/18 05:24:21;;;;;;;44.90;29.50;;;;;;;-5.54;100.00;101554.69;5015422;28;20691;-74
2022/12/18 05:26:46;;;;;;;43.63;30.30;;;;;;;-5.52;100.00;101553.13;5025753;28;21133;-74
2022/12/18 05:29:12;;;;;;;42.93;28.87;;;;;;;-5.53;100.00;101553.03;5021611;28;20202;-74
2022/12/18 05:31:38;;;;;;;46.63;30.37;;;;;;;-5.52;100.00;101552.28;5026247;28;20188;-74
2022/12/18 05:34:04;;;;;;;45.50;29.60;;;;;;;-5.50;100.00;101558.31;5020709;28;20207;-74
2022/12/18 05:36:29;;;;;;;45.23;29.33;;;;;;;-5.51;100.00;101554.03;5017827;28;20581;-74
2022/12/18 05:38:54;;;;;;;43.13;28.50;;;;;;;-5.49;100.00;101559.19;5024392;28;20206;-74
2022/12/18 05:41:20;;;;;;;42.23;29.23;;;;;;;-5.48;100.00;101545.81;5023993;28;20214;-74
2022/12/18 05:43:45;;;;;;;46.70;31.93;;;;;;;-5.48;100.00;101545.81;5019337;28;20207;-74
2022/12/18 05:46:17;;;;;;;47.20;32.23;;;;;;;-5.45;100.00;101556.13;5021908;28;20218;-74
2022/12/18 05:48:42;;;;;;;47.23;33.20;;;;;;;-5.47;100.00;101553.50;5017766;28;20191;-73
2022/12/18 05:51:14;;;;;;;51.50;33.13;;;;;;;-5.48;100.00;101551.75;5024465;28;20203;-73
2022/12/18 05:53:40;;;;;;;45.07;29.87;;;;;;;-5.48;100.00;101554.28;5029510;28;20191;-73
2022/12/18 05:56:11;;;;;;;46.47;30.63;;;;;;;-5.46;100.00;101560.31;5049489;28;20167;-73
2022/12/18 05:58:37;;;;;;;45.60;30.10;;;;;;;-5.47;100.00;101566.13;5047583;28;20215;-73
2022/12/18 06:01:10;;;;;;;42.80;30.90;;;;;;;-5.46;100.00;101567.88;5016481;28;20191;-73
2022/12/18 06:03:35;;;;;;;47.07;30.70;;;;;;;-5.45;100.00;101569.66;5021481;28;20200;-74
2022/12/18 06:06:01;;;;;;;46.73;32.97;;;;;;;-5.44;100.00;101571.38;5016638;28;20184;-74
2022/12/18 06:08:27;;;;;;;47.47;29.70;;;;;;;-5.44;100.00;101563.81;5020352;28;20564;-74
2022/12/18 06:10:52;;;;;;;49.80;32.47;;;;;;;-5.41;100.00;101581.72;5014802;28;20190;-74
2022/12/18 06:13:18;;;;;;;49.47;31.43;;;;;;;-5.40;100.00;101577.56;5026008;28;20194;-74
2022/12/18 06:15:43;;;;;;;44.73;31.67;;;;;;;-5.39;100.00;101575.16;5028666;28;20580;-73
2022/12/18 06:18:09;;;;;;;44.33;29.47;;;;;;;-5.37;100.00;101587.91;5024709;28;20635;-73
2022/12/18 06:20:36;;;;;;;45.50;29.33;;;;;;;-5.36;100.00;101595.56;5025197;28;20849;-73
2022/12/18 06:23:01;;;;;;;44.10;29.37;;;;;;;-5.35;100.00;101593.91;5026179;28;20191;-73
2022/12/18 06:25:27;;;;;;;44.20;30.37;;;;;;;-5.32;100.00;101596.69;5033095;28;20199;-74
2022/12/18 06:27:52;;;;;;;46.40;30.60;;;;;;;-5.31;100.00;101606.00;5020738;28;20180;-73
2022/12/18 06:30:17;;;;;;;47.00;32.30;;;;;;;-5.30;100.00;101611.97;5014662;28;20202;-74
2022/12/18 06:32:43;;;;;;;43.93;30.33;;;;;;;-5.30;100.00;101612.81;5016325;28;20274;-74
2022/12/18 06:35:08;;;;;;;48.10;30.93;;;;;;;-5.35;100.00;101606.53;5023079;28;20227;-74
2022/12/18 06:37:33;;;;;;;47.53;31.27;;;;;;;-5.36;100.00;101610.72;5043137;28;20214;-74
2022/12/18 06:40:00;;;;;;;43.83;29.80;;;;;;;-5.36;100.00;101617.38;5019221;28;20275;-74
2022/12/18 06:42:26;;;;;;;44.87;29.37;;;;;;;-5.34;100.00;101617.53;5023162;28;20214;-74
2022/12/18 06:44:51;;;;;;;44.40;30.53;;;;;;;-5.35;100.00;101624.19;5031239;28;20254;-74
2022/12/18 06:47:17;;;;;;;42.13;29.47;;;;;;;-5.34;100.00;101627.63;5033762;28;20188;-73
2022/12/18 06:49:43;;;;;;;42.57;28.83;;;;;;;-5.33;100.00;101622.69;5025774;28;20198;-74
2022/12/18 06:52:08;;;;;;;40.10;27.77;;;;;;;-5.34;100.00;101623.44;5022858;28;20188;-73
2022/12/18 06:54:33;;;;;;;41.63;29.37;;;;;;;-5.31;100.00;101625.34;5020910;28;20218;-74
2022/12/18 06:56:59;;;;;;;46.30;31.43;;;;;;;-5.32;100.00;101621.03;5019148;28;20221;-74
2022/12/18 06:59:24;;;;;;;40.10;28.63;;;;;;;-5.33;100.00;101627.72;5024027;28;20657;-74
2022/12/18 07:01:49;;;;;;;43.30;28.77;;;;;;;-5.33;100.00;101632.78;5027369;28;20203;-74
2022/12/18 07:04:15;;;;;;;44.23;29.27;;;;;;;-5.37;100.00;101628.28;5032731;28;20207;-73
2022/12/18 07:06:40;;;;;;;39.37;27.17;;;;;;;-5.39;100.00;101620.56;5021780;28;20203;-73
2022/12/18 07:09:05;;;;;;;42.00;28.33;;;;;;;-5.39;100.00;101623.09;5020515;28;20293;-74
2022/12/18 07:11:33;;;;;;;42.23;28.70;;;;;;;-5.41;100.00;101629.66;5037310;28;20202;-74
2022/12/18 07:14:01;;;;;;;42.03;28.07;;;;;;;-5.39;100.00;101624.75;5021082;28;20317;-74
2022/12/18 07:16:30;;;;;;;45.60;29.67;;;;;;;-5.37;100.00;101629.13;5028076;28;20203;-74
2022/12/18 07:18:56;;;;;;;41.60;28.43;;;;;;;-5.38;100.00;101639.13;5025121;28;20211;-73
2022/12/18 07:21:23;;;;;;;41.03;28.47;;;;;;;-5.36;100.00;101627.47;5027430;28;20192;-74
2022/12/18 07:23:48;;;;;;;42.03;27.43;;;;;;;-5.36;100.00;101635.06;5027249;28;20211;-73
2022/12/18 07:26:15;;;;;;;44.30;28.60;;;;;;;-5.36;100.00;101628.38;5027810;28;20206;-74
2022/12/18 07:28:41;;;;;;;39.93;27.60;;;;;;;-5.34;100.00;101637.72;5029001;28;20274;-74
2022/12/18 07:31:12;;;;;;;43.30;29.47;;;;;;;-5.33;100.00;101630.25;5025495;28;20238;-74
2022/12/18 07:33:38;;;;;;;39.70;27.50;;;;;;;-5.30;100.00;101627.09;5025717;28;20194;-74
2022/12/18 07:36:05;;;;;;;41.07;28.67;;;;;;;-5.27;100.00;101633.25;5026996;28;20195;-74
2022/12/18 07:38:31;;;;;;;43.43;28.37;;;;;;;-5.23;100.00;101634.34;5024798;28;20203;-74
2022/12/18 07:41:03;;;;;;;44.10;29.30;;;;;;;-5.23;100.00;101641.94;5032232;28;20191;-74
2022/12/18 07:43:29;;;;;;;40.43;28.03;;;;;;;-5.23;100.00;101647.88;5014707;28;20191;-75
2022/12/18 07:45:54;;;;;;;39.23;27.90;;;;;;;-5.21;100.00;101648.84;5015175;28;20187;-74
2022/12/18 07:48:20;;;;;;;40.30;27.90;;;;;;;-5.19;100.00;101646.47;5024977;28;20187;-74
2022/12/18 07:50:45;;;;;;;41.87;29.30;;;;;;;-5.16;100.00;101656.81;5018318;28;20185;-74
2022/12/18 07:53:10;;;;;;;41.43;28.70;;;;;;;-5.13;100.00;101656.16;5014234;28;20187;-75
2022/12/18 07:55:36;;;;;;;40.97;27.77;;;;;;;-5.10;100.00;101662.28;5024378;28;20214;-74
2022/12/18 07:58:04;;;;;;;41.77;27.17;;;;;;;-5.06;100.00;101659.25;5030965;28;20227;-75
2022/12/18 08:00:30;;;;;;;37.40;26.40;;;;;;;-5.03;100.00;101665.31;5020484;28;20191;-75
2022/12/18 08:02:56;;;;;;;39.90;26.93;;;;;;;-5.00;100.00;101670.59;5016763;28;20187;-74
2022/12/18 08:05:22;;;;;;;36.37;24.93;;;;;;;-4.99;100.00;101675.75;5042923;28;20226;-75
2022/12/18 08:07:48;;;;;;;38.40;25.53;;;;;;;-4.96;100.00;101676.00;5048584;28;20194;-74
2022/12/18 08:10:14;;;;;;;36.57;25.33;;;;;;;-4.93;100.00;101675.34;5014463;28;21123;-74
2022/12/18 08:12:39;;;;;;;35.30;25.33;;;;;;;-4.91;100.00;101673.81;5011274;28;20275;-74
2022/12/18 08:15:05;;;;;;;37.97;26.13;;;;;;;-4.90;100.00;101673.03;5014113;28;20208;-75
2022/12/18 08:17:30;;;;;;;39.47;26.87;;;;;;;-4.90;100.00;101678.97;5012679;28;20239;-74
2022/12/18 08:19:56;;;;;;;38.43;27.57;;;;;;;-4.91;100.00;101681.38;5016979;28;20183;-75
2022/12/18 08:22:21;;;;;;;39.40;28.17;;;;;;;-4.96;100.00;101673.47;5016723;28;20216;-75
2022/12/18 08:24:46;;;;;;;48.23;33.53;;;;;;;-4.93;100.00;101680.38;5014858;28;20214;-74
2022/12/18 08:27:12;;;;;;;45.77;33.00;;;;;;;-4.91;100.00;101677.19;5011011;28;20651;-75
2022/12/18 08:29:38;;;;;;;42.37;30.00;;;;;;;-4.85;100.00;101666.72;5025945;28;20583;-74
2022/12/18 08:32:03;;;;;;;40.10;29.43;;;;;;;-4.80;100.00;101667.06;5011717;28;20659;-74
2022/12/18 08:34:28;;;;;;;43.93;31.23;;;;;;;-4.74;100.00;101662.44;5013031;28;20210;-73
2022/12/18 08:36:54;;;;;;;60.77;40.83;;;;;;;-4.65;100.00;101663.16;5013018;28;20195;-74
2022/12/18 08:39:19;;;;;;;44.87;31.77;;;;;;;-4.56;100.00;101662.97;5029604;28;20238;-74
2022/12/18 08:44:37;;;;;;;41.67;30.67;;;;;;;-4.46;100.00;101650.25;5015087;28;20585;-74
2022/12/18 08:44:39;;;;;;;40.57;28.70;;;;;;;-4.37;100.00;101636.50;5013261;28;20215;-75
2022/12/18 08:47:07;;;;;;;39.00;27.37;;;;;;;-4.29;100.00;101641.34;5013256;28;20190;-74
2022/12/18 08:49:34;;;;;;;38.33;27.63;;;;;;;-4.23;100.00;101629.94;5007949;28;20190;-74
2022/12/18 08:51:59;;;;;;;39.50;28.03;;;;;;;-4.19;100.00;101626.88;5010074;28;20183;-75
2022/12/18 08:54:25;;;;;;;37.23;27.77;;;;;;;-4.15;100.00;101621.25;5009251;28;20208;-75
2022/12/18 08:56:51;;;;;;;36.20;26.37;;;;;;;-4.09;100.00;101614.13;5013543;28;20199;-74
2022/12/18 08:59:17;;;;;;;37.30;26.30;;;;;;;-4.03;100.00;101613.69;4997131;28;20192;-74
2022/12/18 09:01:43;;;;;;;35.40;26.13;;;;;;;-4.00;100.00;101614.75;5012567;28;20206;-75
2022/12/18 09:04:12;;;;;;;39.27;28.57;;;;;;;-3.98;99.31;101617.44;5022864;28;20635;-74
2022/12/18 09:06:37;;;;;;;41.03;27.17;;;;;;;-4.09;98.34;101615.78;5021772;28;20186;-74
2022/12/18 09:09:04;;;;;;;37.77;28.00;;;;;;;-4.19;98.18;101612.56;5020032;28;20171;-74
2022/12/18 09:11:30;;;;;;;37.87;26.37;;;;;;;-4.16;99.03;101625.44;5015549;28;20990;-74
2022/12/18 09:13:56;;;;;;;39.30;28.60;;;;;;;-4.08;98.90;101633.56;5015632;28;20212;-74
2022/12/18 09:16:23;;;;;;;35.53;26.50;;;;;;;-3.96;98.75;101626.00;5019377;28;20727;-74
2022/12/18 09:18:49;;;;;;;37.80;26.27;;;;;;;-3.96;98.34;101631.06;5021018;28;20222;-74
2022/12/18 09:21:20;;;;;;;38.97;27.27;;;;;;;-3.91;98.50;101639.84;5012742;28;20810;-75
2022/12/18 09:23:55;;;;;;;35.53;26.17;;;;;;;-3.87;98.25;101636.75;5011983;28;20261;-74
2022/12/18 09:26:25;;;;;;;36.73;25.93;;;;;;;-3.80;98.23;101633.03;5013408;28;20183;-74
2022/12/18 09:28:50;;;;;;;36.43;26.50;;;;;;;-3.70;97.97;101637.09;5014915;28;20180;-75
2022/12/18 09:31:18;;;;;;;34.77;26.00;;;;;;;-3.59;97.84;101653.91;5014510;28;20194;-74
2022/12/18 09:33:45;;;;;;;32.00;24.57;;;;;;;-3.49;97.59;101659.63;4999404;28;20208;-74
2022/12/18 09:36:15;;;;;;;39.93;27.97;;;;;;;-3.44;97.08;101670.94;5020191;28;20211;-74
2022/12/18 09:38:41;;;;;;;36.37;27.90;;;;;;;-3.50;96.44;101673.91;5015356;28;20214;-74
2022/12/18 09:41:33;;;;;;;38.53;28.17;;;;;;;-3.49;96.43;101672.28;5015154;28;20192;-75
2022/12/18 09:44:11;;;;;;;37.03;28.60;;;;;;;-3.57;96.10;101670.06;5016678;28;20207;-75
2022/12/18 09:46:40;;;;;;;37.73;27.37;;;;;;;-3.58;96.38;101673.38;5011231;28;20181;-74
2022/12/18 09:49:14;;;;;;;36.77;25.60;;;;;;;-3.52;96.32;101675.44;5013549;28;20243;-74
2022/12/18 09:51:46;;;;;;;39.77;27.50;;;;;;;-3.51;96.20;101674.69;5017849;28;20187;-74
2022/12/18 09:54:18;;;;;;;41.83;29.37;;;;;;;-3.54;95.82;101680.41;5018755;28;20204;-74
2022/12/18 09:56:44;;;;;;;39.57;27.50;;;;;;;-3.53;96.13;101687.25;5013288;28;20198;-74
2022/12/18 09:59:26;;;;;;;36.30;26.23;;;;;;;-3.45;96.19;101694.47;5001743;28;20216;-74
2022/12/18 10:01:52;;;;;;;38.87;28.67;;;;;;;-3.42;95.90;101697.22;5014447;28;20314;-74
2022/12/18 10:04:17;;;;;;;41.60;29.63;;;;;;;-3.48;95.34;101696.81;5014327;28;20200;-74
2022/12/18 10:06:48;;;;;;;40.73;28.63;;;;;;;-3.56;95.19;101703.88;5021884;28;20245;-74
2022/12/18 10:09:16;;;;;;;38.63;28.57;;;;;;;-3.58;95.18;101708.81;5011076;28;20249;-74
2022/12/18 10:12:07;;;;;;;59.70;36.63;;;;;;;-3.45;95.75;101697.91;5019206;28;20244;-73
2022/12/18 10:14:57;;;;;;;47.80;32.67;;;;;;;-3.25;95.72;101691.72;4989053;28;20215;-75
2022/12/18 10:17:31;;;;;;;44.07;29.97;;;;;;;-3.16;95.10;101695.63;5022733;28;20211;-75
2022/12/18 10:20:04;;;;;;;41.00;29.57;;;;;;;-3.12;94.84;101693.44;5024788;28;20176;-75
2022/12/18 10:22:54;;;;;;;40.13;28.20;;;;;;;-3.12;94.44;101675.72;5047431;28;20197;-74
2022/12/18 10:25:38;;;;;;;36.47;27.43;;;;;;;-3.13;94.40;101676.50;5027770;28;20698;-74
2022/12/18 10:28:12;;;;;;;38.23;27.00;;;;;;;-3.10;94.59;101669.09;5017052;28;20192;-74
2022/12/18 10:30:38;;;;;;;35.47;26.00;;;;;;;-3.04;94.52;101657.63;5020026;28;20566;-74
2022/12/18 10:33:04;;;;;;;37.43;26.27;;;;;;;-2.97;94.54;101663.22;5013264;28;20299;-74
2022/12/18 10:35:30;;;;;;;34.17;25.10;;;;;;;-2.87;94.50;101666.41;5021281;28;20264;-74
2022/12/18 10:38:21;;;;;;;35.23;25.57;;;;;;;-2.79;94.37;101653.44;5013198;28;20314;-74
2022/12/18 10:40:53;;;;;;;33.23;24.13;;;;;;;-2.69;94.10;101665.06;5016533;28;20270;-74
2022/12/18 10:43:23;;;;;;;33.97;24.67;;;;;;;-2.58;93.86;101662.41;5015767;28;20196;-74
2022/12/18 10:46:20;;;;;;;33.20;26.20;;;;;;;-2.42;93.56;101666.81;5013800;28;20226;-76
2022/12/18 10:48:48;;;;;;;37.17;27.13;;;;;;;-2.37;93.25;101666.34;5006983;28;20584;-74
2022/12/18 10:51:40;;;;;;;38.53;28.17;;;;;;;-2.30;92.91;101657.47;5013713;28;20199;-75
2022/12/18 10:54:06;;;;;;;37.60;28.83;;;;;;;-2.31;92.44;101660.78;5011735;28;21568;-74
2022/12/18 10:56:34;;;;;;;38.60;28.23;;;;;;;-2.33;92.27;101649.66;5015816;28;20262;-74
2022/12/18 10:59:02;;;;;;;36.73;26.83;;;;;;;-2.35;92.28;101646.19;5017924;28;20247;-74
2022/12/18 11:01:28;;;;;;;38.07;26.67;;;;;;;-2.38;92.18;101649.38;5018617;28;20283;-73
2022/12/18 11:03:53;;;;;;;40.37;30.83;;;;;;;-2.46;91.45;101655.59;5016490;28;20211;-74
2022/12/18 11:06:22;;;;;;;39.33;30.30;;;;;;;-2.52;91.59;101660.25;5015860;28;20191;-73
2022/12/18 11:09:21;;;;;;;38.00;27.97;;;;;;;-2.66;91.73;101661.88;5016644;28;20239;-74
2022/12/18 11:11:53;;;;;;;37.83;28.03;;;;;;;-2.60;92.08;101664.81;5007170;28;20219;-73